sensor_id;sensor_type;location;lat;lon;timestamp;pressure;altitude;pressure_sealevel;temperature;humidity
6938;BME280;40040;42.706;23.372;2023-02-15T00:01:19;144691.88;;;2.04;100.00
6938;BME280;40040;42.706;23.372;2023-02-15T00:03:47;144695.56;;;2.06;100.00
6938;BME280;40040;42.706;23.372;2023-02-15T00:06:14;144685.78;;;2.02;100.00
6938;BME280;40040;42.706;23.372;2023-02-15T00:08:41;144686.97;;;2.02;100.00
6938;BME280;40040;42.706;23.372;2023-02-15T00:11:10;144686.97;;;2.02;100.00
6938;BME280;40040;42.706;23.372;2023-02-15T00:13:37;144645.34;;;1.85;100.00
6938;BME280;40040;42.706;23.372;2023-02-15T00:16:09;144674.72;;;1.97;100.00
6938;BME280;40040;42.706;23.372;2023-02-15T00:18:36;144669.81;;;1.95;100.00
6938;BME280;40040;42.706;23.372;2023-02-15T00:21:04;144684.53;;;2.01;100.00
6938;BME280;40040;42.706;23.372;2023-02-15T00:23:32;144646.56;;;1.86;100.00
6938;BME280;40040;42.706;23.372;2023-02-15T00:26:05;144673.53;;;1.97;100.00
6938;BME280;40040;42.706;23.372;2023-02-15T00:28:34;144642.91;;;1.84;100.00
6938;BME280;40040;42.706;23.372;2023-02-15T00:31:05;144634.34;;;1.81;100.00
6938;BME280;40040;42.706;23.372;2023-02-15T00:33:32;144631.88;;;1.80;100.00
6938;BME280;40040;42.706;23.372;2023-02-15T00:36:00;144664.97;;;1.93;100.00
6938;BME280;40040;42.706;23.372;2023-02-15T00:38:28;144660.06;;;1.91;100.00
6938;BME280;40040;42.706;23.372;2023-02-15T00:40:56;144650.25;;;1.87;100.00
6938;BME280;40040;42.706;23.372;2023-02-15T00:43:23;144638.00;;;1.82;100.00
6938;BME280;40040;42.706;23.372;2023-02-15T00:45:51;144628.19;;;1.78;100.00
6938;BME280;40040;42.706;23.372;2023-02-15T00:48:19;144593.91;;;1.64;100.00
6938;BME280;40040;42.706;23.372;2023-02-15T00:50:46;144624.53;;;1.77;100.00
6938;BME280;40040;42.706;23.372;2023-02-15T00:53:15;144615.94;;;1.73;100.00
6938;BME280;40040;42.706;23.372;2023-02-15T00:55:41;144625.75;;;1.77;100.00
6938;BME280;40040;42.706;23.372;2023-02-15T00:58:09;144571.84;;;1.55;100.00
6938;BME280;40040;42.706;23.372;2023-02-15T01:00:38;144598.81;;;1.66;100.00
6938;BME280;40040;42.706;23.372;2023-02-15T01:03:07;144596.38;;;1.65;100.00
6938;BME280;40040;42.706;23.372;2023-02-15T01:05:34;144564.50;;;1.52;100.00
6938;BME280;40040;42.706;23.372;2023-02-15T01:08:01;144486.19;;;1.20;100.00
6938;BME280;40040;42.706;23.372;2023-02-15T01:10:28;144591.47;;;1.63;100.00
6938;BME280;40040;42.706;23.372;2023-02-15T01:12:56;144584.13;;;1.60;100.00
6938;BME280;40040;42.706;23.372;2023-02-15T01:15:23;144576.75;;;1.57;100.00
6938;BME280;40040;42.706;23.372;2023-02-15T01:17:50;144552.28;;;1.47;100.00
6938;BME280;40040;42.706;23.372;2023-02-15T01:20:21;144587.81;;;1.62;100.00
6938;BME280;40040;42.706;23.372;2023-02-15T01:22:48;144559.59;;;1.50;100.00
6938;BME280;40040;42.706;23.372;2023-02-15T01:25:15;144571.84;;;1.55;100.00
6938;BME280;40040;42.706;23.372;2023-02-15T01:27:42;144562.09;;;1.51;100.00
6938;BME280;40040;42.706;23.372;2023-02-15T01:30:10;144569.41;;;1.54;100.00
6938;BME280;40040;42.706;23.372;2023-02-15T01:32:37;144569.41;;;1.54;100.00
6938;BME280;40040;42.706;23.372;2023-02-15T01:35:04;144532.69;;;1.39;100.00
6938;BME280;40040;42.706;23.372;2023-02-15T01:37:33;144579.22;;;1.58;100.00
6938;BME280;40040;42.706;23.372;2023-02-15T01:40:00;144557.19;;;1.49;100.00
6938;BME280;40040;42.706;23.372;2023-02-15T01:42:28;144566.97;;;1.53;100.00
6938;BME280;40040;42.706;23.372;2023-02-15T01:44:56;144581.66;;;1.59;100.00
6938;BME280;40040;42.706;23.372;2023-02-15T01:47:34;144591.47;;;1.63;100.00
6938;BME280;40040;42.706;23.372;2023-02-15T01:50:09;144558.41;;;1.50;100.00
6938;BME280;40040;42.706;23.372;2023-02-15T01:52:42;144575.56;;;1.57;100.00
6938;BME280;40040;42.706;23.372;2023-02-15T01:55:12;144589.00;;;1.62;100.00
6938;BME280;40040;42.706;23.372;2023-02-15T01:57:40;144552.28;;;1.47;100.00
6938;BME280;40040;42.706;23.372;2023-02-15T02:00:09;144538.78;;;1.42;100.00
6938;BME280;40040;42.706;23.372;2023-02-15T02:02:36;144585.31;;;1.61;100.00
6938;BME280;40040;42.706;23.372;2023-02-15T02:05:05;144591.47;;;1.63;100.00
6938;BME280;40040;42.706;23.372;2023-02-15T02:07:36;144580.41;;;1.59;100.00
6938;BME280;40040;42.706;23.372;2023-02-15T02:10:11;144585.31;;;1.61;100.00
6938;BME280;40040;42.706;23.372;2023-02-15T02:12:39;144576.75;;;1.57;100.00
6938;BME280;40040;42.706;23.372;2023-02-15T02:15:08;144580.41;;;1.59;100.00
6938;BME280;40040;42.706;23.372;2023-02-15T02:17:44;144593.91;;;1.64;100.00
6938;BME280;40040;42.706;23.372;2023-02-15T02:20:32;144578.00;;;1.58;100.00
6938;BME280;40040;42.706;23.372;2023-02-15T02:23:24;144564.50;;;1.52;100.00
6938;BME280;40040;42.706;23.372;2023-02-15T02:29:45;144533.91;;;1.40;100.00
6938;BME280;40040;42.706;23.372;2023-02-15T02:35:28;144532.69;;;1.39;100.00
6938;BME280;40040;42.706;23.372;2023-02-15T02:38:03;144554.75;;;1.48;100.00
6938;BME280;40040;42.706;23.372;2023-02-15T02:40:41;144530.22;;;1.38;100.00
6938;BME280;40040;42.706;23.372;2023-02-15T02:43:17;144518.00;;;1.33;100.00
6938;BME280;40040;42.706;23.372;2023-02-15T02:45:50;144515.56;;;1.32;100.00
6938;BME280;40040;42.706;23.372;2023-02-15T02:48:22;144514.31;;;1.32;100.00
6938;BME280;40040;42.706;23.372;2023-02-15T02:50:52;144492.28;;;1.23;100.00
6938;BME280;40040;42.706;23.372;2023-02-15T02:53:19;144493.50;;;1.23;100.00
6938;BME280;40040;42.706;23.372;2023-02-15T02:55:47;144455.56;;;1.07;100.00
6938;BME280;40040;42.706;23.372;2023-02-15T02:58:19;144471.47;;;1.14;100.00
6938;BME280;40040;42.706;23.372;2023-02-15T03:00:52;144470.22;;;1.13;100.00
6938;BME280;40040;42.706;23.372;2023-02-15T03:03:23;144462.91;;;1.10;100.00
6938;BME280;40040;42.706;23.372;2023-02-15T03:05:55;144483.72;;;1.19;100.00
6938;BME280;40040;42.706;23.372;2023-02-15T03:08:25;144433.53;;;0.98;100.00
6938;BME280;40040;42.706;23.372;2023-02-15T03:10:55;144459.22;;;1.09;100.00
6938;BME280;40040;42.706;23.372;2023-02-15T03:13:23;144453.09;;;1.06;100.00
6938;BME280;40040;42.706;23.372;2023-02-15T03:15:51;144420.06;;;0.93;100.00
6938;BME280;40040;42.706;23.372;2023-02-15T03:18:36;144451.91;;;1.06;100.00
6938;BME280;40040;42.706;23.372;2023-02-15T03:21:07;144459.22;;;1.09;100.00
6938;BME280;40040;42.706;23.372;2023-02-15T03:23:49;144466.56;;;1.12;100.00
6938;BME280;40040;42.706;23.372;2023-02-15T03:26:20;144473.94;;;1.15;100.00
6938;BME280;40040;42.706;23.372;2023-02-15T03:28:50;144461.66;;;1.10;100.00
6938;BME280;40040;42.706;23.372;2023-02-15T03:31:20;144493.50;;;1.23;100.00
6938;BME280;40040;42.706;23.372;2023-02-15T03:33:54;144477.63;;;1.17;100.00
6938;BME280;40040;42.706;23.372;2023-02-15T03:36:29;144472.72;;;1.14;100.00
6938;BME280;40040;42.706;23.372;2023-02-15T03:39:03;144472.72;;;1.14;100.00
6938;BME280;40040;42.706;23.372;2023-02-15T03:41:34;144483.72;;;1.19;100.00
6938;BME280;40040;42.706;23.372;2023-02-15T03:44:06;144481.28;;;1.18;100.00
6938;BME280;40040;42.706;23.372;2023-02-15T03:46:43;144363.75;;;0.70;100.00
6938;BME280;40040;42.706;23.372;2023-02-15T03:49:15;144510.66;;;1.30;100.00
6938;BME280;40040;42.706;23.372;2023-02-15T03:51:48;144518.00;;;1.33;100.00
6938;BME280;40040;42.706;23.372;2023-02-15T03:54:22;144495.94;;;1.24;100.00
6938;BME280;40040;42.706;23.372;2023-02-15T03:57:10;144533.91;;;1.40;100.00
6938;BME280;40040;42.706;23.372;2023-02-15T03:59:55;144542.47;;;1.43;100.00
6938;BME280;40040;42.706;23.372;2023-02-15T04:02:47;144544.94;;;1.44;100.00
6938;BME280;40040;42.706;23.372;2023-02-15T04:05:17;144549.84;;;1.46;100.00
6938;BME280;40040;42.706;23.372;2023-02-15T04:07:46;144571.84;;;1.55;100.00
6938;BME280;40040;42.706;23.372;2023-02-15T04:10:13;144576.75;;;1.57;100.00
6938;BME280;40040;42.706;23.372;2023-02-15T04:12:57;144579.22;;;1.58;100.00
6938;BME280;40040;42.706;23.372;2023-02-15T04:15:24;144584.13;;;1.60;100.00
6938;BME280;40040;42.706;23.372;2023-02-15T04:18:07;144601.28;;;1.67;100.00
6938;BME280;40040;42.706;23.372;2023-02-15T04:20:34;144613.53;;;1.72;100.00
6938;BME280;40040;42.706;23.372;2023-02-15T04:23:19;144633.09;;;1.80;100.00
6938;BME280;40040;42.706;23.372;2023-02-15T04:26:04;144631.88;;;1.80;100.00
6938;BME280;40040;42.706;23.372;2023-02-15T04:28:31;144641.69;;;1.84;100.00
6938;BME280;40040;42.706;23.372;2023-02-15T04:30:58;144656.38;;;1.90;100.00
6938;BME280;40040;42.706;23.372;2023-02-15T04:33:25;144660.06;;;1.91;100.00
6938;BME280;40040;42.706;23.372;2023-02-15T04:35:51;144596.38;;;1.65;100.00
6938;BME280;40040;42.706;23.372;2023-02-15T04:38:20;144667.41;;;1.94;100.00
6938;BME280;40040;42.706;23.372;2023-02-15T04:40:49;144680.88;;;2.00;100.00
6938;BME280;40040;42.706;23.372;2023-02-15T04:43:17;144696.78;;;2.06;100.00
6938;BME280;40040;42.706;23.372;2023-02-15T04:45:48;144689.47;;;2.03;100.00
6938;BME280;40040;42.706;23.372;2023-02-15T04:48:15;144701.69;;;2.08;100.00
6938;BME280;40040;42.706;23.372;2023-02-15T04:50:42;144625.75;;;1.77;100.00
6938;BME280;40040;42.706;23.372;2023-02-15T04:53:10;144718.84;;;2.15;100.00
6938;BME280;40040;42.706;23.372;2023-02-15T04:55:38;144693.13;;;2.05;100.00
6938;BME280;40040;42.706;23.372;2023-02-15T04:58:05;144701.69;;;2.08;100.00
6938;BME280;40040;42.706;23.372;2023-02-15T05:00:31;144715.19;;;2.14;100.00
6938;BME280;40040;42.706;23.372;2023-02-15T05:02:58;144717.63;;;2.15;100.00
6938;BME280;40040;42.706;23.372;2023-02-15T05:05:25;144682.13;;;2.00;100.00
6938;BME280;40040;42.706;23.372;2023-02-15T05:07:52;144653.91;;;1.89;100.00
6938;BME280;40040;42.706;23.372;2023-02-15T05:10:19;144712.72;;;2.13;100.00
6938;BME280;40040;42.706;23.372;2023-02-15T05:12:47;144723.75;;;2.17;100.00
6938;BME280;40040;42.706;23.372;2023-02-15T05:15:14;144668.63;;;1.95;100.00
6938;BME280;40040;42.706;23.372;2023-02-15T05:17:41;144722.53;;;2.17;100.00
6938;BME280;40040;42.706;23.372;2023-02-15T05:20:09;144721.28;;;2.16;100.00
6938;BME280;40040;42.706;23.372;2023-02-15T05:22:36;144699.28;;;2.07;100.00
6938;BME280;40040;42.706;23.372;2023-02-15T05:25:03;144713.94;;;2.13;100.00
6938;BME280;40040;42.706;23.372;2023-02-15T05:27:48;144723.75;;;2.17;100.00
6938;BME280;40040;42.706;23.372;2023-02-15T05:30:33;144723.75;;;2.17;100.00
6938;BME280;40040;42.706;23.372;2023-02-15T05:33:00;144707.84;;;2.11;100.00
6938;BME280;40040;42.706;23.372;2023-02-15T05:35:26;144667.41;;;1.94;100.00
6938;BME280;40040;42.706;23.372;2023-02-15T05:37:53;144673.53;;;1.97;100.00
6938;BME280;40040;42.706;23.372;2023-02-15T05:40:20;144679.66;;;1.99;100.00
6938;BME280;40040;42.706;23.372;2023-02-15T05:42:48;144669.81;;;1.95;100.00
6938;BME280;40040;42.706;23.372;2023-02-15T05:45:15;144642.91;;;1.84;100.00
6938;BME280;40040;42.706;23.372;2023-02-15T05:47:42;144691.88;;;2.04;100.00
6938;BME280;40040;42.706;23.372;2023-02-15T05:50:09;144624.53;;;1.77;100.00
6938;BME280;40040;42.706;23.372;2023-02-15T05:52:36;144685.78;;;2.02;100.00
6938;BME280;40040;42.706;23.372;2023-02-15T05:55:07;144729.88;;;2.20;100.00
6938;BME280;40040;42.706;23.372;2023-02-15T05:57:34;144723.75;;;2.17;100.00
6938;BME280;40040;42.706;23.372;2023-02-15T06:00:03;144760.50;;;2.33;100.00
6938;BME280;40040;42.706;23.372;2023-02-15T06:02:33;144743.34;;;2.25;100.00
6938;BME280;40040;42.706;23.372;2023-02-15T06:05:00;144792.38;;;2.46;100.00
6938;BME280;40040;42.706;23.372;2023-02-15T06:07:27;144791.16;;;2.45;100.00
6938;BME280;40040;42.706;23.372;2023-02-15T06:09:54;144813.22;;;2.54;100.00
6938;BME280;40040;42.706;23.372;2023-02-15T06:12:20;144785.00;;;2.43;100.00
6938;BME280;40040;42.706;23.372;2023-02-15T06:14:47;144771.56;;;2.37;100.00
6938;BME280;40040;42.706;23.372;2023-02-15T06:17:15;144794.81;;;2.47;100.00
6938;BME280;40040;42.706;23.372;2023-02-15T06:19:43;144853.66;;;2.71;100.00
6938;BME280;40040;42.706;23.372;2023-02-15T06:22:10;144856.13;;;2.72;100.00
6938;BME280;40040;42.706;23.372;2023-02-15T06:24:39;144845.06;;;2.67;100.00
6938;BME280;40040;42.706;23.372;2023-02-15T06:27:08;144878.16;;;2.81;100.00
6938;BME280;40040;42.706;23.372;2023-02-15T06:29:34;144809.56;;;2.53;100.00
6938;BME280;40040;42.706;23.372;2023-02-15T06:32:02;144880.63;;;2.82;100.00
6938;BME280;40040;42.706;23.372;2023-02-15T06:34:30;144691.88;;;2.04;100.00
6938;BME280;40040;42.706;23.372;2023-02-15T06:36:57;144868.38;;;2.77;100.00
6938;BME280;40040;42.706;23.372;2023-02-15T06:39:24;144905.13;;;2.92;100.00
6938;BME280;40040;42.706;23.372;2023-02-15T06:41:51;144865.91;;;2.76;100.00
6938;BME280;40040;42.706;23.372;2023-02-15T06:44:18;144937.03;;;3.05;100.00
6938;BME280;40040;42.706;23.372;2023-02-15T06:46:45;144927.22;;;3.01;100.00
6938;BME280;40040;42.706;23.372;2023-02-15T06:49:11;144881.88;;;2.82;100.00
6938;BME280;40040;42.706;23.372;2023-02-15T06:51:40;144949.28;;;3.10;100.00
6938;BME280;40040;42.706;23.372;2023-02-15T06:54:06;144929.63;;;3.02;100.00
6938;BME280;40040;42.706;23.372;2023-02-15T06:56:33;144883.06;;;2.83;100.00
6938;BME280;40040;42.706;23.372;2023-02-15T06:59:01;144867.13;;;2.76;100.00
6938;BME280;40040;42.706;23.372;2023-02-15T07:01:27;144875.72;;;2.80;100.00
6938;BME280;40040;42.706;23.372;2023-02-15T07:03:54;144868.38;;;2.77;100.00
6938;BME280;40040;42.706;23.372;2023-02-15T07:06:21;144874.47;;;2.79;100.00
6938;BME280;40040;42.706;23.372;2023-02-15T07:08:50;144880.63;;;2.82;100.00
6938;BME280;40040;42.706;23.372;2023-02-15T07:11:16;144899.03;;;2.89;100.00
6938;BME280;40040;42.706;23.372;2023-02-15T07:14:01;144907.63;;;2.93;100.00
6938;BME280;40040;42.706;23.372;2023-02-15T07:16:27;144918.63;;;2.97;100.00
6938;BME280;40040;42.706;23.372;2023-02-15T07:18:54;144902.69;;;2.91;100.00
6938;BME280;40040;42.706;23.372;2023-02-15T07:21:21;144922.31;;;2.99;100.00
6938;BME280;40040;42.706;23.372;2023-02-15T07:23:49;144937.03;;;3.05;100.00
6938;BME280;40040;42.706;23.372;2023-02-15T07:26:16;144896.56;;;2.88;100.00
6938;BME280;40040;42.706;23.372;2023-02-15T07:28:43;144972.56;;;3.19;100.00
6938;BME280;40040;42.706;23.372;2023-02-15T07:31:12;145010.56;;;3.35;100.00
6938;BME280;40040;42.706;23.372;2023-02-15T07:33:39;145041.25;;;3.47;100.00
6938;BME280;40040;42.706;23.372;2023-02-15T07:36:08;145042.50;;;3.48;100.00
6938;BME280;40040;42.706;23.372;2023-02-15T07:38:40;145071.94;;;3.60;100.00
6938;BME280;40040;42.706;23.372;2023-02-15T07:41:10;145133.28;;;3.85;100.00
6938;BME280;40040;42.706;23.372;2023-02-15T07:43:38;145135.72;;;3.86;100.00
6938;BME280;40040;42.706;23.372;2023-02-15T07:46:07;145197.09;;;4.11;100.00
6938;BME280;40040;42.706;23.372;2023-02-15T07:48:35;145165.16;;;3.98;100.00
6938;BME280;40040;42.706;23.372;2023-02-15T07:51:04;145231.41;;;4.25;100.00
6938;BME280;40040;42.706;23.372;2023-02-15T07:53:32;145256.00;;;4.35;100.00
6938;BME280;40040;42.706;23.372;2023-02-15T07:55:59;145270.69;;;4.41;100.00
6938;BME280;40040;42.706;23.372;2023-02-15T07:58:28;145260.91;;;4.37;100.00
6938;BME280;40040;42.706;23.372;2023-02-15T08:01:08;145300.16;;;4.53;100.00
6938;BME280;40040;42.706;23.372;2023-02-15T08:03:35;145270.69;;;4.41;100.00
6938;BME280;40040;42.706;23.372;2023-02-15T08:06:02;145285.47;;;4.47;100.00
6938;BME280;40040;42.706;23.372;2023-02-15T08:08:29;145341.94;;;4.71;100.00
6938;BME280;40040;42.706;23.372;2023-02-15T08:11:01;145310.00;;;4.57;100.00
6938;BME280;40040;42.706;23.372;2023-02-15T08:13:48;145322.28;;;4.63;100.00
6938;BME280;40040;42.706;23.372;2023-02-15T08:16:29;145324.75;;;4.64;100.00
6938;BME280;40040;42.706;23.372;2023-02-15T08:18:57;145323.50;;;4.63;100.00
6938;BME280;40040;42.706;23.372;2023-02-15T08:21:25;145361.56;;;4.79;100.00
6938;BME280;40040;42.706;23.372;2023-02-15T08:23:53;145344.38;;;4.72;100.00
6938;BME280;40040;42.706;23.372;2023-02-15T08:26:20;145295.28;;;4.51;100.00
6938;BME280;40040;42.706;23.372;2023-02-15T08:28:48;145302.66;;;4.54;100.00
6938;BME280;40040;42.706;23.372;2023-02-15T08:31:16;145324.75;;;4.64;100.00
6938;BME280;40040;42.706;23.372;2023-02-15T08:33:45;145338.22;;;4.69;100.00
6938;BME280;40040;42.706;23.372;2023-02-15T08:36:14;145350.53;;;4.74;100.00
6938;BME280;40040;42.706;23.372;2023-02-15T08:38:42;145240.00;;;4.29;100.00
6938;BME280;40040;42.706;23.372;2023-02-15T08:41:11;145361.56;;;4.79;100.00
6938;BME280;40040;42.706;23.372;2023-02-15T08:43:39;145232.66;;;4.26;100.00
6938;BME280;40040;42.706;23.372;2023-02-15T08:46:08;145411.91;;;4.99;100.00
6938;BME280;40040;42.706;23.372;2023-02-15T08:48:35;145408.25;;;4.98;100.00
6938;BME280;40040;42.706;23.372;2023-02-15T08:51:07;145410.66;;;4.99;100.00
6938;BME280;40040;42.706;23.372;2023-02-15T08:53:36;145430.34;;;5.07;100.00
6938;BME280;40040;42.706;23.372;2023-02-15T08:56:03;145446.31;;;5.13;100.00
6938;BME280;40040;42.706;23.372;2023-02-15T08:58:31;145317.34;;;4.60;99.91
6938;BME280;40040;42.706;23.372;2023-02-15T09:00:59;145461.06;;;5.19;100.00
6938;BME280;40040;42.706;23.372;2023-02-15T09:03:28;145442.63;;;5.12;97.81
6938;BME280;40040;42.706;23.372;2023-02-15T09:05:59;145497.91;;;5.34;96.90
6938;BME280;40040;42.706;23.372;2023-02-15T09:08:27;145526.16;;;5.46;95.82
6938;BME280;40040;42.706;23.372;2023-02-15T09:10:54;145458.59;;;5.18;95.54
6938;BME280;40040;42.706;23.372;2023-02-15T09:13:21;145521.28;;;5.44;94.57
6938;BME280;40040;42.706;23.372;2023-02-15T09:15:48;145499.16;;;5.35;92.87
6938;BME280;40040;42.706;23.372;2023-02-15T09:18:15;145545.84;;;5.54;94.18
6938;BME280;40040;42.706;23.372;2023-02-15T09:20:44;145614.66;;;5.82;93.57
6938;BME280;40040;42.706;23.372;2023-02-15T09:23:11;145676.13;;;6.07;92.40
6938;BME280;40040;42.706;23.372;2023-02-15T09:25:39;145667.53;;;6.04;89.89
6938;BME280;40040;42.706;23.372;2023-02-15T09:28:08;145705.63;;;6.19;89.04
6938;BME280;40040;42.706;23.372;2023-02-15T09:30:35;145703.19;;;6.18;86.41
6938;BME280;40040;42.706;23.372;2023-02-15T09:33:02;145725.31;;;6.27;86.33
6938;BME280;40040;42.706;23.372;2023-02-15T09:35:30;145699.50;;;6.17;87.56
6938;BME280;40040;42.706;23.372;2023-02-15T09:37:58;145676.13;;;6.07;87.33
6938;BME280;40040;42.706;23.372;2023-02-15T09:40:26;145710.56;;;6.21;87.28
6938;BME280;40040;42.706;23.372;2023-02-15T09:45:58;145708.13;;;6.20;85.89
6938;BME280;40040;42.706;23.372;2023-02-15T09:48:39;145786.78;;;6.52;85.19
6938;BME280;40040;42.706;23.372;2023-02-15T09:54:12;145806.47;;;6.60;84.43
6938;BME280;40040;42.706;23.372;2023-02-15T09:56:47;145854.41;;;6.80;83.01
6938;BME280;40040;42.706;23.372;2023-02-15T09:59:22;145860.59;;;6.82;83.86
6938;BME280;40040;42.706;23.372;2023-02-15T10:02:02;145909.78;;;7.03;82.22
6938;BME280;40040;42.706;23.372;2023-02-15T10:04:49;145924.56;;;7.09;82.31
6938;BME280;40040;42.706;23.372;2023-02-15T10:07:29;145965.19;;;7.25;81.85
6938;BME280;40040;42.706;23.372;2023-02-15T10:10:11;145995.91;;;7.38;81.07
6938;BME280;40040;42.706;23.372;2023-02-15T10:12:59;146034.06;;;7.53;80.33
6938;BME280;40040;42.706;23.372;2023-02-15T10:15:40;146057.47;;;7.63;78.71
6938;BME280;40040;42.706;23.372;2023-02-15T10:18:20;146067.31;;;7.67;77.63
6938;BME280;40040;42.706;23.372;2023-02-15T10:20:56;146009.44;;;7.43;78.85
6938;BME280;40040;42.706;23.372;2023-02-15T10:23:46;146053.78;;;7.61;77.72
6938;BME280;40040;42.706;23.372;2023-02-15T10:26:22;146019.31;;;7.47;77.24
6938;BME280;40040;42.706;23.372;2023-02-15T10:28:50;145946.72;;;7.18;76.73
6938;BME280;40040;42.706;23.372;2023-02-15T10:31:24;145914.69;;;7.05;78.55
6938;BME280;40040;42.706;23.372;2023-02-15T10:34:10;145978.69;;;7.31;78.24
6938;BME280;40040;42.706;23.372;2023-02-15T10:36:48;146053.78;;;7.61;78.12
6938;BME280;40040;42.706;23.372;2023-02-15T10:39:39;146059.91;;;7.64;76.32
6938;BME280;40040;42.706;23.372;2023-02-15T10:42:49;146162.06;;;8.06;74.89
6938;BME280;40040;42.706;23.372;2023-02-15T10:45:52;146050.09;;;7.60;74.69
6938;BME280;40040;42.706;23.372;2023-02-15T10:49:01;146390.00;;;8.98;73.14
6938;BME280;40040;42.706;23.372;2023-02-15T10:51:41;146450.41;;;9.23;70.49
6938;BME280;40040;42.706;23.372;2023-02-15T10:54:20;146399.88;;;9.02;70.24
6938;BME280;40040;42.706;23.372;2023-02-15T10:56:58;146503.41;;;9.45;70.35
6938;BME280;40040;42.706;23.372;2023-02-15T10:59:42;146551.44;;;9.64;69.58
6938;BME280;40040;42.706;23.372;2023-02-15T11:02:19;146624.19;;;9.94;67.75
6938;BME280;40040;42.706;23.372;2023-02-15T11:04:54;146656.28;;;10.07;68.78
6938;BME280;40040;42.706;23.372;2023-02-15T11:07:27;146618.06;;;9.91;67.41
6938;BME280;40040;42.706;23.372;2023-02-15T11:10:05;146562.56;;;9.69;66.57
6938;BME280;40040;42.706;23.372;2023-02-15T11:12:33;146653.78;;;10.06;65.94
6938;BME280;40040;42.706;23.372;2023-02-15T11:15:11;146661.28;;;10.09;66.09
6938;BME280;40040;42.706;23.372;2023-02-15T11:17:41;146701.94;;;10.26;65.49
6938;BME280;40040;42.706;23.372;2023-02-15T11:20:19;146630.38;;;9.96;66.93
6938;BME280;40040;42.706;23.372;2023-02-15T11:22:50;146589.66;;;9.80;67.39
6938;BME280;40040;42.706;23.372;2023-02-15T11:25:23;146610.69;;;9.88;66.53
6938;BME280;40040;42.706;23.372;2023-02-15T11:27:51;146639.00;;;10.00;67.10
6938;BME280;40040;42.706;23.372;2023-02-15T11:30:22;146731.53;;;10.38;66.28
6938;BME280;40040;42.706;23.372;2023-02-15T11:32:51;146711.81;;;10.30;65.64
6938;BME280;40040;42.706;23.372;2023-02-15T11:35:24;146784.63;;;10.59;64.76
6938;BME280;40040;42.706;23.372;2023-02-15T11:38:01;146752.50;;;10.46;64.40
6938;BME280;40040;42.706;23.372;2023-02-15T11:40:34;146846.31;;;10.84;63.41
6938;BME280;40040;42.706;23.372;2023-02-15T11:43:05;146758.69;;;10.49;64.19
6938;BME280;40040;42.706;23.372;2023-02-15T11:45:35;146631.63;;;9.97;66.80
6938;BME280;40040;42.706;23.372;2023-02-15T11:48:12;146450.41;;;9.23;65.95
6938;BME280;40040;42.706;23.372;2023-02-15T11:50:41;146602.03;;;9.85;66.92
6938;BME280;40040;42.706;23.372;2023-02-15T11:53:12;146627.94;;;9.95;64.98
6938;BME280;40040;42.706;23.372;2023-02-15T11:55:42;146725.41;;;10.35;65.09
6938;BME280;40040;42.706;23.372;2023-02-15T11:58:18;146651.34;;;10.05;65.18
6938;BME280;40040;42.706;23.372;2023-02-15T12:00:52;146597.09;;;9.83;66.48
6938;BME280;40040;42.706;23.372;2023-02-15T12:03:24;146745.13;;;10.43;64.49
6938;BME280;40040;42.706;23.372;2023-02-15T12:06:01;146742.69;;;10.42;63.77
6938;BME280;40040;42.706;23.372;2023-02-15T12:08:36;146715.53;;;10.31;63.45
6938;BME280;40040;42.706;23.372;2023-02-15T12:11:07;146762.41;;;10.50;63.82
6938;BME280;40040;42.706;23.372;2023-02-15T12:13:53;146889.47;;;11.02;62.67
6938;BME280;40040;42.706;23.372;2023-02-15T12:16:22;146969.75;;;11.34;61.74
6938;BME280;40040;42.706;23.372;2023-02-15T12:18:50;146998.13;;;11.46;60.78
6938;BME280;40040;42.706;23.372;2023-02-15T12:21:25;147092.00;;;11.84;60.93
6938;BME280;40040;42.706;23.372;2023-02-15T12:23:55;147093.25;;;11.85;59.38
6938;BME280;40040;42.706;23.372;2023-02-15T12:26:29;147084.59;;;11.81;60.13
6938;BME280;40040;42.706;23.372;2023-02-15T12:28:58;147020.34;;;11.55;59.90
6938;BME280;40040;42.706;23.372;2023-02-15T12:31:32;146869.75;;;10.94;61.43
6938;BME280;40040;42.706;23.372;2023-02-15T12:34:09;146730.34;;;10.37;62.05
6938;BME280;40040;42.706;23.372;2023-02-15T12:36:49;146973.44;;;11.36;62.04
6938;BME280;40040;42.706;23.372;2023-02-15T12:39:22;146977.13;;;11.38;60.68
6938;BME280;40040;42.706;23.372;2023-02-15T12:42:00;147026.50;;;11.58;61.34
6938;BME280;40040;42.706;23.372;2023-02-15T12:44:30;147001.81;;;11.48;59.94
6938;BME280;40040;42.706;23.372;2023-02-15T12:47:01;147033.94;;;11.61;60.22
6938;BME280;40040;42.706;23.372;2023-02-15T12:49:29;146989.47;;;11.43;61.45
6938;BME280;40040;42.706;23.372;2023-02-15T12:51:58;147008.00;;;11.50;59.95
6938;BME280;40040;42.706;23.372;2023-02-15T12:54:37;147137.72;;;12.03;59.35
6938;BME280;40040;42.706;23.372;2023-02-15T12:57:26;147180.94;;;12.20;58.16
6938;BME280;40040;42.706;23.372;2023-02-15T12:59:56;147201.97;;;12.29;57.62
6938;BME280;40040;42.706;23.372;2023-02-15T13:02:31;147276.06;;;12.59;58.09
6938;BME280;40040;42.706;23.372;2023-02-15T13:05:13;147294.63;;;12.67;56.02
6938;BME280;40040;42.706;23.372;2023-02-15T13:07:45;147074.72;;;11.77;56.82
6938;BME280;40040;42.706;23.372;2023-02-15T13:10:23;147011.72;;;11.52;60.48
6938;BME280;40040;42.706;23.372;2023-02-15T13:12:52;146942.56;;;11.23;59.73
6938;BME280;40040;42.706;23.372;2023-02-15T13:15:26;146927.78;;;11.17;60.23
6938;BME280;40040;42.706;23.372;2023-02-15T13:17:57;146885.78;;;11.00;60.29
6938;BME280;40040;42.706;23.372;2023-02-15T13:20:25;146792.00;;;10.62;61.44
6938;BME280;40040;42.706;23.372;2023-02-15T13:22:57;146750.06;;;10.45;62.87
6938;BME280;40040;42.706;23.372;2023-02-15T13:25:28;146582.28;;;9.77;61.94
6938;BME280;40040;42.706;23.372;2023-02-15T13:28:04;146585.97;;;9.78;62.80